EPLL

Łódź Władysław Reymont Airport

Łódź, Poland

EPLL 110830Z 19008G18KT CAVOK 05/01 Q0992

Observed Flight Rules
Dec-11 @ 08:30 UTC (46 minutes ago) Visual Flight Rules
Wind Visibility Clouds
190° at 8 knots
 Gusting to 18 knots
10,000+ meters
  • Clear skies
Temperatures Readings
Current 5°C / 41°F
Dewpoint 1°C / 34°F
Humidity 76%
Altimeter 29.29" Hg
Pressure 992 hPa
Elevation 184
Observed Flight Rules
Dec-11 @ 08:30 UTC
(46 minutes ago)
VFR
Wind Visibility
190° at 8 knots
 Gusting to 18 knots
10,000+ meters
Clouds
  • Clear skies
Temperature Dewpoint
5°C / 41°F 1°C / 34°F
Humidity Altimeter Pressure
76% 29.29" Hg 992 hPa